createdAt,value
2022-09-15T00:01:02.781Z,15.89
2022-09-15T00:03:31.888Z,15.88
2022-09-15T00:05:59.649Z,15.82
2022-09-15T00:08:27.668Z,15.82
2022-09-15T00:10:57.344Z,15.80
2022-09-15T00:13:26.035Z,15.92
2022-09-15T00:15:54.472Z,16.02
2022-09-15T00:18:22.485Z,15.99
2022-09-15T00:20:51.743Z,15.94
2022-09-15T00:23:19.906Z,15.77
2022-09-15T00:25:50.470Z,15.79
2022-09-15T00:28:19.578Z,15.76
2022-09-15T00:30:49.216Z,15.73
2022-09-15T00:33:17.806Z,15.69
2022-09-15T00:35:47.717Z,15.69
2022-09-15T00:38:17.489Z,15.65
2022-09-15T00:40:47.108Z,15.60
2022-09-15T00:43:16.036Z,15.46
2022-09-15T00:45:44.588Z,15.55
2022-09-15T00:48:16.122Z,15.52
2022-09-15T00:50:48.585Z,15.54
2022-09-15T00:53:18.489Z,15.46
2022-09-15T00:55:49.318Z,15.49
2022-09-15T00:58:21.497Z,15.46
2022-09-15T01:00:55.353Z,15.62
2022-09-15T01:03:23.783Z,15.42
2022-09-15T01:05:54.555Z,15.47
2022-09-15T01:08:40.729Z,15.43
2022-09-15T01:11:08.914Z,15.51
2022-09-15T01:13:36.854Z,15.54
2022-09-15T01:16:11.358Z,15.47
2022-09-15T01:18:47.052Z,15.54
2022-09-15T01:21:25.678Z,15.55
2022-09-15T01:24:30.559Z,15.34
2022-09-15T01:27:18.743Z,15.42
2022-09-15T01:30:04.997Z,15.46
2022-09-15T01:32:57.804Z,15.46
2022-09-15T01:35:33.653Z,15.37
2022-09-15T01:38:05.233Z,15.35
2022-09-15T01:40:37.665Z,15.33
2022-09-15T01:43:06.534Z,15.21
2022-09-15T01:45:36.876Z,15.28
2022-09-15T01:48:06.393Z,15.27
2022-09-15T01:50:36.610Z,15.37
2022-09-15T01:53:09.259Z,15.40
2022-09-15T01:55:40.920Z,15.35
2022-09-15T01:58:09.287Z,15.33
2022-09-15T02:00:41.042Z,15.31
2022-09-15T02:03:17.394Z,15.37
2022-09-15T02:05:48.101Z,15.24
2022-09-15T02:08:25.447Z,15.24
2022-09-15T02:10:58.759Z,15.30
2022-09-15T02:13:32.329Z,15.20
2022-09-15T02:16:02.238Z,15.07
2022-09-15T02:18:32.760Z,14.91
2022-09-15T02:21:09.242Z,15.02
2022-09-15T02:23:39.629Z,15.03
2022-09-15T02:26:10.079Z,15.06
2022-09-15T02:28:39.855Z,15.15
2022-09-15T02:31:10.468Z,15.17
2022-09-15T02:33:41.232Z,15.20
2022-09-15T02:36:10.958Z,15.31
2022-09-15T02:38:43.347Z,15.22
2022-09-15T02:41:13.736Z,15.40
2022-09-15T02:43:46.342Z,15.36
2022-09-15T02:46:16.528Z,15.46
2022-09-15T02:48:44.267Z,15.47
2022-09-15T02:51:12.076Z,15.51
2022-09-15T02:53:39.921Z,15.51
2022-09-15T02:56:08.058Z,15.40
2022-09-15T02:58:35.893Z,15.44
2022-09-15T03:01:04.896Z,15.38
2022-09-15T03:03:34.223Z,15.44
2022-09-15T03:08:58.602Z,15.63
2022-09-15T03:11:27.943Z,15.50
2022-09-15T03:13:57.119Z,15.46
2022-09-15T03:16:25.481Z,15.35
2022-09-15T03:18:55.422Z,15.25
2022-09-15T03:21:23.760Z,15.27
2022-09-15T03:23:51.686Z,15.33
2022-09-15T03:26:20.997Z,15.36
2022-09-15T03:28:48.716Z,15.42
2022-09-15T03:31:16.464Z,15.41
2022-09-15T03:33:44.402Z,15.60
2022-09-15T03:36:12.440Z,15.77
2022-09-15T03:38:40.170Z,15.70
2022-09-15T03:41:10.759Z,15.54
2022-09-15T03:43:40.437Z,15.41
2022-09-15T03:46:10.030Z,15.71
2022-09-15T03:48:40.414Z,15.60
2022-09-15T03:51:10.022Z,15.78
2022-09-15T03:53:39.070Z,15.70
2022-09-15T03:56:12.097Z,15.60
2022-09-15T03:58:41.217Z,15.50
2022-09-15T04:01:09.267Z,15.65
2022-09-15T04:03:43.199Z,15.63
2022-09-15T04:06:13.414Z,15.50
2022-09-15T04:08:41.212Z,15.41
2022-09-15T04:11:11.230Z,15.49
2022-09-15T04:13:41.837Z,15.41
2022-09-15T04:16:11.876Z,15.23
2022-09-15T04:18:39.828Z,15.33
2022-09-15T04:21:08.825Z,15.34
2022-09-15T04:23:37.173Z,15.38
2022-09-15T04:26:06.594Z,15.61
2022-09-15T04:28:36.379Z,15.53
2022-09-15T04:31:06.912Z,15.56
2022-09-15T04:33:35.199Z,15.60
2022-09-15T04:36:04.021Z,15.51
2022-09-15T04:38:32.259Z,15.43
2022-09-15T04:41:01.806Z,15.45
2022-09-15T04:43:29.903Z,15.49
2022-09-15T04:45:57.649Z,15.69
2022-09-15T04:48:26.974Z,15.87
2022-09-15T04:50:54.996Z,15.83
2022-09-15T04:53:22.701Z,15.67
2022-09-15T04:55:50.433Z,15.93
2022-09-15T04:58:18.145Z,15.81
2022-09-15T05:00:45.993Z,15.86
2022-09-15T05:03:15.093Z,15.97
2022-09-15T05:05:44.204Z,15.85
2022-09-15T05:08:12.154Z,15.94
2022-09-15T05:10:39.860Z,16.01
2022-09-15T05:13:07.594Z,16.00
2022-09-15T05:15:35.322Z,15.99
2022-09-15T05:18:03.075Z,16.03
2022-09-15T05:20:30.822Z,16.04
2022-09-15T05:23:00.073Z,16.21
2022-09-15T05:25:28.278Z,16.37
2022-09-15T05:27:56.013Z,16.19
2022-09-15T05:30:37.749Z,16.19
2022-09-15T05:33:07.503Z,16.44
2022-09-15T05:35:35.231Z,16.48
2022-09-15T05:38:04.374Z,16.53
2022-09-15T05:40:33.783Z,16.59
2022-09-15T05:43:01.630Z,16.78
2022-09-15T05:45:29.340Z,16.68
2022-09-15T05:47:57.107Z,16.72
2022-09-15T05:50:24.813Z,16.55
2022-09-15T05:52:52.797Z,16.51
2022-09-15T05:55:21.950Z,16.75
2022-09-15T05:57:49.694Z,16.78
2022-09-15T06:00:18.952Z,16.83
2022-09-15T06:02:46.851Z,16.89
2022-09-15T06:05:14.635Z,16.85
2022-09-15T06:07:42.603Z,16.85
2022-09-15T06:10:11.344Z,16.84
2022-09-15T06:12:40.487Z,16.88
2022-09-15T06:15:08.998Z,16.88
2022-09-15T06:17:36.751Z,17.14
2022-09-15T06:20:06.602Z,17.37
2022-09-15T06:22:34.502Z,17.26
2022-09-15T06:25:02.332Z,17.41
2022-09-15T06:27:30.065Z,17.55
2022-09-15T06:29:59.374Z,17.11
2022-09-15T06:32:27.378Z,17.10
2022-09-15T06:34:55.168Z,17.09
2022-09-15T06:37:22.889Z,16.83
2022-09-15T06:39:51.072Z,17.10
2022-09-15T06:42:19.069Z,17.12
2022-09-15T06:44:48.468Z,17.24
2022-09-15T06:47:17.998Z,17.21
2022-09-15T06:49:45.803Z,17.29
2022-09-15T06:52:13.532Z,17.19
2022-09-15T06:54:41.270Z,17.50
2022-09-15T06:57:08.981Z,17.35
2022-09-15T06:59:36.705Z,17.55
2022-09-15T07:02:05.381Z,17.24
2022-09-15T07:04:36.838Z,17.37
2022-09-15T07:07:04.700Z,17.59
2022-09-15T07:09:32.487Z,17.43
2022-09-15T07:12:00.212Z,17.32
2022-09-15T07:14:27.928Z,17.58
2022-09-15T07:16:55.625Z,17.83
2022-09-15T07:19:23.437Z,18.13
2022-09-15T07:21:53.167Z,18.23
2022-09-15T07:24:20.901Z,18.40
2022-09-15T07:26:48.620Z,18.40
2022-09-15T07:29:16.370Z,18.48
2022-09-15T07:31:44.089Z,18.40
2022-09-15T07:34:12.092Z,18.18
2022-09-15T07:36:39.838Z,18.44
2022-09-15T07:39:08.930Z,18.46
2022-09-15T07:41:36.730Z,18.53
2022-09-15T07:44:04.816Z,18.51
2022-09-15T07:46:33.819Z,18.59
2022-09-15T07:49:03.146Z,18.54
2022-09-15T07:51:31.218Z,18.60
2022-09-15T07:53:59.008Z,18.43
2022-09-15T07:56:28.387Z,18.80
2022-09-15T07:58:56.225Z,18.78
2022-09-15T08:01:24.289Z,18.26
2022-09-15T08:03:53.143Z,18.30
2022-09-15T08:06:23.252Z,18.64
2022-09-15T08:08:55.229Z,18.78
2022-09-15T08:11:29.498Z,18.97
2022-09-15T08:13:57.670Z,18.79
2022-09-15T08:16:25.896Z,19.26
2022-09-15T08:18:55.430Z,19.37
2022-09-15T08:21:24.127Z,19.53
2022-09-15T08:23:53.551Z,19.54
2022-09-15T08:26:21.489Z,19.40
2022-09-15T08:28:50.720Z,19.10
2022-09-15T08:31:18.809Z,18.91
2022-09-15T08:33:48.963Z,19.04
2022-09-15T08:36:17.049Z,18.91
2022-09-15T08:38:46.212Z,18.91
2022-09-15T08:41:16.549Z,19.26
2022-09-15T08:43:48.126Z,19.16
2022-09-15T08:46:21.090Z,19.57
2022-09-15T08:48:52.971Z,19.36
2022-09-15T08:51:27.449Z,19.25
2022-09-15T08:53:59.710Z,18.98
2022-09-15T08:56:29.710Z,19.27
2022-09-15T08:58:57.827Z,20.02
2022-09-15T09:01:42.109Z,19.91
2022-09-15T09:04:33.982Z,20.06
2022-09-15T09:07:10.692Z,20.16
2022-09-15T09:09:44.096Z,19.56
2022-09-15T09:12:33.791Z,20.19
2022-09-15T09:15:15.390Z,20.41
2022-09-15T09:18:00.496Z,20.27
2022-09-15T09:20:34.647Z,20.45
2022-09-15T09:23:03.374Z,21.22
2022-09-15T09:25:31.294Z,21.28
2022-09-15T09:27:59.633Z,21.24
2022-09-15T09:30:30.332Z,21.21
2022-09-15T09:33:10.505Z,21.06
2022-09-15T09:35:43.351Z,21.36
2022-09-15T09:38:11.562Z,21.39
2022-09-15T09:40:41.352Z,21.18
2022-09-15T09:43:09.316Z,20.41
2022-09-15T09:45:37.085Z,20.85
2022-09-15T09:48:15.316Z,20.80
2022-09-15T09:50:44.287Z,20.88
2022-09-15T09:53:23.112Z,21.08
2022-09-15T09:55:50.838Z,20.90
2022-09-15T09:58:21.177Z,21.21
2022-09-15T10:00:49.229Z,21.36
2022-09-15T10:03:19.532Z,21.70
2022-09-15T10:06:01.728Z,21.75
2022-09-15T10:08:29.526Z,21.73
2022-09-15T10:11:02.296Z,21.39
2022-09-15T10:13:30.098Z,21.11
2022-09-15T10:16:01.247Z,21.44
2022-09-15T10:18:35.787Z,21.27
2022-09-15T10:21:04.833Z,20.79
2022-09-15T10:23:34.105Z,20.99
2022-09-15T10:26:20.383Z,21.12
2022-09-15T10:29:12.343Z,20.67
2022-09-15T10:31:41.276Z,20.80
2022-09-15T10:34:30.338Z,21.24
2022-09-15T10:37:07.552Z,21.25
2022-09-15T10:39:42.310Z,21.06
2022-09-15T10:42:15.758Z,20.82
2022-09-15T10:44:52.348Z,20.56
2022-09-15T10:47:27.202Z,19.96
2022-09-15T10:50:07.731Z,19.87
2022-09-15T10:52:46.658Z,19.64
2022-09-15T10:55:37.102Z,19.59
2022-09-15T10:58:34.992Z,19.43
2022-09-15T11:01:14.902Z,19.03
2022-09-15T11:04:20.604Z,18.81
2022-09-15T11:06:55.649Z,18.53
2022-09-15T11:09:26.073Z,18.05
2022-09-15T11:12:03.585Z,17.52
2022-09-15T11:14:45.665Z,17.36
2022-09-15T11:17:25.830Z,17.14
2022-09-15T11:20:05.651Z,17.33
2022-09-15T11:22:36.434Z,17.67
2022-09-15T11:25:11.857Z,18.38
2022-09-15T11:27:43.712Z,18.35
2022-09-15T11:30:17.258Z,18.81
2022-09-15T11:32:47.940Z,18.83
2022-09-15T11:35:38.347Z,19.32
2022-09-15T11:38:15.209Z,19.29
2022-09-15T11:40:48.079Z,18.65
2022-09-15T11:43:19.670Z,18.72
2022-09-15T11:45:51.081Z,18.82
2022-09-15T11:48:22.829Z,18.93
2022-09-15T11:50:54.336Z,19.32
2022-09-15T11:53:29.138Z,19.31
2022-09-15T11:56:01.725Z,19.50
2022-09-15T11:58:35.333Z,19.62
2022-09-15T12:01:09.571Z,19.84
2022-09-15T12:03:39.118Z,20.15
2022-09-15T12:06:10.088Z,20.96
2022-09-15T12:08:43.388Z,20.47
2022-09-15T12:11:15.658Z,20.29
2022-09-15T12:13:43.654Z,20.14
2022-09-15T12:16:11.769Z,20.54
2022-09-15T12:18:44.975Z,20.49
2022-09-15T12:21:18.607Z,20.85
2022-09-15T12:23:53.614Z,21.24
2022-09-15T12:26:23.381Z,20.89
2022-09-15T12:28:57.286Z,21.04
2022-09-15T12:31:33.554Z,20.70
2022-09-15T12:34:03.554Z,20.50
2022-09-15T12:36:43.054Z,20.66
2022-09-15T12:39:32.356Z,21.33
2022-09-15T12:42:20.173Z,21.32
2022-09-15T12:44:54.008Z,21.30
2022-09-15T12:47:28.319Z,21.11
2022-09-15T12:50:00.569Z,20.73
2022-09-15T12:52:29.798Z,20.95
2022-09-15T12:55:01.813Z,20.82
2022-09-15T12:57:32.986Z,21.19
2022-09-15T13:00:42.335Z,21.30
2022-09-15T13:03:28.596Z,20.79
2022-09-15T13:06:18.377Z,21.29
2022-09-15T13:08:51.346Z,21.35
2022-09-15T13:11:25.421Z,21.45
2022-09-15T13:13:55.813Z,21.76
2022-09-15T13:16:28.257Z,21.78
2022-09-15T13:19:06.377Z,22.13
2022-09-15T13:21:35.738Z,21.83
2022-09-15T13:24:06.489Z,22.01
2022-09-15T13:26:37.527Z,21.99
2022-09-15T13:29:07.400Z,22.07
2022-09-15T13:31:40.333Z,21.39
2022-09-15T13:40:34.750Z,21.73
2022-09-15T13:43:21.738Z,21.63
2022-09-15T13:45:59.157Z,20.82
2022-09-15T13:48:43.628Z,21.16
2022-09-15T13:51:16.964Z,20.79
2022-09-15T13:53:49.581Z,20.75
2022-09-15T13:56:21.335Z,21.41
2022-09-15T13:58:56.497Z,21.42
2022-09-15T14:01:28.183Z,21.14
2022-09-15T14:03:57.760Z,21.16
2022-09-15T14:06:27.657Z,20.96
2022-09-15T14:08:57.349Z,21.11
2022-09-15T14:11:28.164Z,20.54
2022-09-15T14:13:59.116Z,21.01
2022-09-15T14:16:33.892Z,20.91
2022-09-15T14:19:03.882Z,21.32
2022-09-15T14:21:32.992Z,21.13
2022-09-15T14:24:04.870Z,21.39
2022-09-15T14:26:35.604Z,21.64
2022-09-15T14:29:06.351Z,21.25
2022-09-15T14:31:36.601Z,20.47
2022-09-15T14:34:07.698Z,20.01
2022-09-15T14:36:35.932Z,20.43
2022-09-15T14:39:16.163Z,20.68
2022-09-15T14:41:44.108Z,20.67
2022-09-15T14:47:21.118Z,20.94
2022-09-15T14:49:48.983Z,21.02
2022-09-15T14:52:25.210Z,21.05
2022-09-15T14:54:57.814Z,21.14
2022-09-15T14:57:30.667Z,21.07
2022-09-15T15:00:03.981Z,20.69
2022-09-15T15:02:41.702Z,20.68
2022-09-15T15:05:11.937Z,20.56
2022-09-15T15:07:40.177Z,20.43
2022-09-15T15:10:15.833Z,20.74
2022-09-15T15:12:47.538Z,20.68
2022-09-15T15:15:17.344Z,20.46
2022-09-15T15:17:47.968Z,20.56
2022-09-15T15:20:19.568Z,20.69
2022-09-15T15:22:48.500Z,20.75
2022-09-15T15:25:27.485Z,20.47
2022-09-15T15:27:56.142Z,20.27
2022-09-15T15:30:46.611Z,20.19
2022-09-15T15:33:25.275Z,20.17
2022-09-15T15:36:07.049Z,20.50
2022-09-15T15:38:36.436Z,20.41
2022-09-15T15:41:06.310Z,20.40
2022-09-15T15:43:34.430Z,19.96
2022-09-15T15:46:04.964Z,19.92
2022-09-15T15:48:37.826Z,19.69
2022-09-15T15:51:07.580Z,19.41
2022-09-15T15:53:35.742Z,19.75
2022-09-15T15:56:03.989Z,19.65
2022-09-15T15:58:31.769Z,18.97
2022-09-15T16:00:59.975Z,18.97
2022-09-15T16:03:29.455Z,18.97
2022-09-15T16:05:59.572Z,19.23
2022-09-15T16:08:30.974Z,19.24
2022-09-15T16:10:59.449Z,18.94
2022-09-15T16:13:27.179Z,18.64
2022-09-15T16:15:56.748Z,18.39
2022-09-15T16:18:24.941Z,18.33
2022-09-15T16:20:55.097Z,18.23
2022-09-15T16:23:24.569Z,18.06
2022-09-15T16:25:55.120Z,18.00
2022-09-15T16:28:22.901Z,18.04
2022-09-15T16:30:50.798Z,17.97
2022-09-15T16:33:19.906Z,17.88
2022-09-15T16:35:51.078Z,17.89
2022-09-15T16:38:20.835Z,17.70
2022-09-15T16:40:49.370Z,17.88
2022-09-15T16:43:19.550Z,18.10
2022-09-15T16:45:47.383Z,17.98
2022-09-15T16:48:15.426Z,17.90
2022-09-15T16:51:01.719Z,18.00
2022-09-15T16:53:32.601Z,18.01
2022-09-15T16:56:00.469Z,18.04
2022-09-15T16:58:28.434Z,17.98
2022-09-15T17:00:56.636Z,17.98
2022-09-15T17:03:25.877Z,18.23
2022-09-15T17:05:55.277Z,18.23
2022-09-15T17:08:25.664Z,18.10
2022-09-15T17:10:56.841Z,18.14
2022-09-15T17:13:29.302Z,18.20
2022-09-15T17:15:58.849Z,18.21
2022-09-15T17:18:27.223Z,18.15
2022-09-15T17:20:55.377Z,18.06
2022-09-15T17:23:24.605Z,17.98
2022-09-15T17:25:57.278Z,17.89
2022-09-15T17:28:26.491Z,17.78
2022-09-15T17:30:58.789Z,17.78
2022-09-15T17:33:27.358Z,17.70
2022-09-15T17:35:55.248Z,17.76
2022-09-15T17:38:23.136Z,17.75
2022-09-15T17:40:51.620Z,17.64
2022-09-15T17:43:22.161Z,17.58
2022-09-15T17:45:50.811Z,17.70
2022-09-15T17:48:19.057Z,17.54
2022-09-15T17:50:48.673Z,17.65
2022-09-15T17:53:18.035Z,17.69
2022-09-15T17:55:45.872Z,17.62
2022-09-15T17:58:13.688Z,17.54
2022-09-15T18:00:44.096Z,17.51
2022-09-15T18:03:20.181Z,17.62
2022-09-15T18:05:48.323Z,17.45
2022-09-15T18:08:16.829Z,17.58
2022-09-15T18:10:45.178Z,17.53
2022-09-15T18:13:15.554Z,17.32
2022-09-15T18:15:45.056Z,17.43
2022-09-15T18:18:15.204Z,17.31
2022-09-15T18:20:43.305Z,17.18
2022-09-15T18:23:14.781Z,17.18
2022-09-15T18:25:42.984Z,17.15
2022-09-15T18:28:11.118Z,17.28
2022-09-15T18:30:41.697Z,17.17
2022-09-15T18:33:14.658Z,17.22
2022-09-15T18:35:42.582Z,17.18
2022-09-15T18:38:11.261Z,17.07
2022-09-15T18:40:39.614Z,17.12
2022-09-15T18:43:07.454Z,17.19
2022-09-15T18:45:35.266Z,17.01
2022-09-15T18:48:03.367Z,17.11
2022-09-15T18:50:32.855Z,17.10
2022-09-15T18:53:00.733Z,17.04
2022-09-15T18:55:28.828Z,16.87
2022-09-15T18:58:00.736Z,16.99
2022-09-15T19:00:29.674Z,16.99
2022-09-15T19:02:58.223Z,17.07
2022-09-15T19:05:26.833Z,17.14
2022-09-15T19:07:56.326Z,17.23
2022-09-15T19:10:24.925Z,17.06
2022-09-15T19:12:52.721Z,16.76
2022-09-15T19:15:23.624Z,16.64
2022-09-15T19:17:51.876Z,16.58
2022-09-15T19:20:19.620Z,16.56
2022-09-15T19:22:47.607Z,16.65
2022-09-15T19:25:16.725Z,16.52
2022-09-15T19:27:44.505Z,16.49
2022-09-15T19:30:13.372Z,16.41
2022-09-15T19:32:41.574Z,16.46
2022-09-15T19:35:11.297Z,16.45
2022-09-15T19:37:40.710Z,16.49
2022-09-15T19:40:11.046Z,16.48
2022-09-15T19:42:41.357Z,16.45
2022-09-15T19:45:11.364Z,16.57
2022-09-15T19:47:39.689Z,16.54
2022-09-15T19:50:09.150Z,16.60
2022-09-15T19:52:36.952Z,16.61
2022-09-15T19:55:06.653Z,16.55
2022-09-15T19:57:34.453Z,16.62
2022-09-15T20:00:05.551Z,16.76
2022-09-15T20:02:33.315Z,16.67
2022-09-15T20:05:01.177Z,16.69
2022-09-15T20:07:28.907Z,16.63
2022-09-15T20:09:57.362Z,16.63
2022-09-15T20:12:25.598Z,16.70
2022-09-15T20:14:53.424Z,16.67
2022-09-15T20:17:22.574Z,16.75
2022-09-15T20:19:50.377Z,16.86
2022-09-15T20:22:18.094Z,16.73
2022-09-15T20:24:45.863Z,16.70
2022-09-15T20:27:14.014Z,16.76
2022-09-15T20:29:41.897Z,16.69
2022-09-15T20:32:09.629Z,16.67
2022-09-15T20:34:38.855Z,16.62
2022-09-15T20:37:07.099Z,16.54
2022-09-15T20:39:35.715Z,16.57
2022-09-15T20:42:03.453Z,16.60
2022-09-15T20:44:31.151Z,16.51
2022-09-15T20:46:58.848Z,16.66
2022-09-15T20:49:26.578Z,16.62
2022-09-15T20:51:55.640Z,16.59
2022-09-15T20:54:24.108Z,16.55
2022-09-15T20:56:51.857Z,16.50
2022-09-15T20:59:19.602Z,16.58
2022-09-15T21:01:47.687Z,16.57
2022-09-15T21:04:15.472Z,16.70
2022-09-15T21:06:43.244Z,16.56
2022-09-15T21:09:12.452Z,16.69
2022-09-15T21:11:43.050Z,16.71
2022-09-15T21:14:13.453Z,16.73
2022-09-15T21:16:42.448Z,16.73
2022-09-15T21:19:12.453Z,16.76
2022-09-15T21:21:40.487Z,16.59
2022-09-15T21:24:09.646Z,16.57
2022-09-15T21:27:00.917Z,16.57
2022-09-15T21:29:29.460Z,16.50
2022-09-15T21:31:57.716Z,16.69
2022-09-15T21:34:26.286Z,16.77
2022-09-15T21:36:54.021Z,16.75
2022-09-15T21:39:21.849Z,16.83
2022-09-15T21:41:51.112Z,16.76
2022-09-15T21:44:18.901Z,16.67
2022-09-15T21:46:47.241Z,16.63
2022-09-15T21:49:15.066Z,16.43
2022-09-15T21:51:42.860Z,16.54
2022-09-15T21:54:11.072Z,16.51
2022-09-15T21:56:38.926Z,16.48
2022-09-15T21:59:09.209Z,16.32
2022-09-15T22:01:37.272Z,16.53
2022-09-15T22:04:08.426Z,16.59
2022-09-15T22:06:37.730Z,16.52
2022-09-15T22:09:07.297Z,16.61
2022-09-15T22:11:35.708Z,16.54
2022-09-15T22:14:04.420Z,16.29
2022-09-15T22:16:33.697Z,16.34
2022-09-15T22:19:01.840Z,16.38
2022-09-15T22:21:31.483Z,16.38
2022-09-15T22:24:00.078Z,16.46
2022-09-15T22:26:29.787Z,16.39
2022-09-15T22:28:59.462Z,16.56
2022-09-15T22:31:28.322Z,16.54
2022-09-15T22:33:57.833Z,16.55
2022-09-15T22:36:29.762Z,16.45
2022-09-15T22:39:03.421Z,16.45
2022-09-15T22:41:31.997Z,16.49
2022-09-15T22:43:59.802Z,16.62
2022-09-15T22:46:27.625Z,16.44
2022-09-15T22:48:56.765Z,16.45
2022-09-15T22:51:24.628Z,16.24
2022-09-15T22:53:54.533Z,16.48
2022-09-15T22:56:23.140Z,16.39
2022-09-15T22:58:50.878Z,16.22
2022-09-15T23:01:20.475Z,16.31
2022-09-15T23:03:50.859Z,16.15
2022-09-15T23:06:20.053Z,16.05
2022-09-15T23:08:51.288Z,16.06
2022-09-15T23:11:19.027Z,16.20
2022-09-15T23:13:46.994Z,16.23
2022-09-15T23:16:14.799Z,16.30
2022-09-15T23:18:42.820Z,15.85
2022-09-15T23:21:13.885Z,15.74
2022-09-15T23:23:45.259Z,15.83
2022-09-15T23:26:13.811Z,15.94
2022-09-15T23:28:41.671Z,15.99
2022-09-15T23:31:11.885Z,15.98
2022-09-15T23:33:39.747Z,16.04
2022-09-15T23:36:09.552Z,15.84
2022-09-15T23:38:38.564Z,15.79
2022-09-15T23:41:08.604Z,15.71
2022-09-15T23:43:36.432Z,15.55
2022-09-15T23:46:04.717Z,15.65
2022-09-15T23:48:32.803Z,15.77
2022-09-15T23:51:00.964Z,15.78
2022-09-15T23:53:29.006Z,15.83
2022-09-15T23:55:56.790Z,15.56
2022-09-15T23:58:26.102Z,15.40
